createdAt,value
2019-04-04T00:00:37.828Z,30.90
2019-04-04T00:03:07.352Z,35.17
2019-04-04T00:05:36.719Z,33.03
2019-04-04T00:08:06.434Z,32.00
2019-04-04T00:10:37.444Z,32.13
2019-04-04T00:13:06.890Z,31.20
2019-04-04T00:15:41.787Z,35.30
2019-04-04T00:18:14.012Z,31.83
2019-04-04T00:20:46.231Z,34.57
2019-04-04T00:23:22.620Z,37.53
2019-04-04T00:25:56.450Z,34.27
2019-04-04T00:28:37.608Z,34.87
2019-04-04T00:31:07.501Z,32.70
2019-04-04T00:33:37.088Z,28.83
2019-04-04T00:36:06.925Z,33.00
2019-04-04T00:38:37.989Z,30.93
2019-04-04T00:41:08.100Z,29.90
2019-04-04T00:43:37.721Z,29.93
2019-04-04T00:46:07.210Z,35.60
2019-04-04T00:48:37.032Z,32.40
2019-04-04T00:51:07.925Z,30.07
2019-04-04T00:53:38.535Z,32.47
2019-04-04T00:56:08.306Z,32.03
2019-04-04T00:58:38.295Z,30.87
2019-04-04T01:01:08.254Z,30.43
2019-04-04T01:03:38.073Z,31.73
2019-04-04T01:06:07.881Z,31.77
2019-04-04T01:08:38.807Z,33.60
2019-04-04T01:11:08.872Z,31.00
2019-04-04T01:13:38.975Z,33.43
2019-04-04T01:16:11.978Z,31.70
2019-04-04T01:18:41.879Z,32.07
2019-04-04T01:21:11.823Z,30.83
2019-04-04T01:23:41.819Z,36.63
2019-04-04T01:26:11.816Z,30.77
2019-04-04T01:28:41.831Z,30.93
2019-04-04T01:31:14.631Z,32.93
2019-04-04T01:33:43.178Z,34.57
2019-04-04T01:36:13.194Z,32.10
2019-04-04T01:38:42.906Z,29.73
2019-04-04T01:41:12.670Z,31.23
2019-04-04T01:43:42.545Z,33.23
2019-04-04T01:46:13.043Z,34.00
2019-04-04T01:48:43.619Z,30.10
2019-04-04T01:51:13.330Z,32.07
2019-04-04T01:53:43.027Z,32.73
2019-04-04T01:56:12.655Z,30.53
2019-04-04T01:58:42.634Z,33.80
2019-04-04T02:01:12.287Z,32.03
2019-04-04T02:03:41.787Z,31.80
2019-04-04T02:06:11.811Z,33.73
2019-04-04T02:08:47.395Z,35.73
2019-04-04T02:11:16.944Z,34.30
2019-04-04T02:13:46.433Z,31.73
2019-04-04T02:16:16.940Z,36.10
2019-04-04T02:18:47.371Z,36.47
2019-04-04T02:21:17.373Z,34.07
2019-04-04T02:23:47.142Z,34.90
2019-04-04T02:26:22.900Z,35.67
2019-04-04T02:28:52.356Z,31.57
2019-04-04T02:31:22.187Z,33.30
2019-04-04T02:33:51.597Z,31.77
2019-04-04T02:36:21.017Z,32.13
2019-04-04T02:39:07.584Z,34.03
2019-04-04T02:41:37.025Z,33.77
2019-04-04T02:44:06.972Z,30.37
2019-04-04T02:46:36.396Z,33.53
2019-04-04T02:49:06.020Z,33.63
2019-04-04T02:51:40.239Z,31.37
2019-04-04T02:54:06.834Z,30.67
2019-04-04T02:56:36.463Z,32.80
2019-04-04T02:59:06.238Z,35.73
2019-04-04T03:01:35.777Z,35.67
2019-04-04T03:04:05.452Z,35.27
2019-04-04T03:06:34.957Z,31.73
2019-04-04T03:09:09.091Z,32.60
2019-04-04T03:11:37.395Z,31.53
2019-04-04T03:14:06.805Z,36.30
2019-04-04T03:16:36.150Z,33.47
2019-04-04T03:19:09.883Z,34.43
2019-04-04T03:21:36.552Z,29.60
2019-04-04T03:24:07.104Z,34.07
2019-04-04T03:26:36.677Z,35.10
2019-04-04T03:29:09.862Z,32.37
2019-04-04T03:31:38.847Z,31.73
2019-04-04T03:34:11.579Z,33.37
2019-04-04T03:36:39.567Z,33.07
2019-04-04T03:39:08.984Z,34.40
2019-04-04T03:41:38.400Z,39.90
2019-04-04T03:44:07.823Z,40.40
2019-04-04T03:46:38.878Z,37.73
2019-04-04T03:49:08.651Z,36.83
2019-04-04T03:51:38.331Z,34.40
2019-04-04T03:54:13.129Z,32.47
2019-04-04T03:56:42.742Z,29.77
2019-04-04T03:59:12.294Z,31.87
2019-04-04T04:01:45.497Z,32.17
2019-04-04T04:04:12.828Z,32.30
2019-04-04T04:06:43.200Z,31.93
2019-04-04T04:09:12.937Z,37.07
2019-04-04T04:11:42.429Z,34.40
2019-04-04T04:14:11.856Z,31.63
2019-04-04T04:16:41.301Z,32.30
2019-04-04T04:19:10.730Z,31.90
2019-04-04T04:21:42.755Z,31.63
2019-04-04T04:24:11.225Z,29.10
2019-04-04T04:26:41.895Z,29.53
2019-04-04T04:29:11.877Z,33.30
2019-04-04T04:31:41.400Z,34.03
2019-04-04T04:34:10.818Z,33.87
2019-04-04T04:36:40.241Z,32.83
2019-04-04T04:39:09.618Z,34.80
2019-04-04T04:41:39.003Z,31.37
2019-04-04T04:44:08.298Z,34.20
2019-04-04T04:46:37.961Z,30.10
2019-04-04T04:49:07.387Z,30.03
2019-04-04T04:51:36.793Z,30.87
2019-04-04T04:54:06.266Z,32.03
2019-04-04T04:56:35.772Z,32.27
2019-04-04T04:59:05.249Z,33.60
2019-04-04T05:01:34.929Z,30.27
2019-04-04T05:04:04.709Z,28.83
2019-04-04T05:06:35.609Z,29.07
2019-04-04T05:09:06.779Z,28.13
2019-04-04T05:11:36.198Z,30.70
2019-04-04T05:14:05.766Z,28.23
2019-04-04T05:16:35.907Z,29.17
2019-04-04T05:19:06.267Z,28.50
2019-04-04T05:21:35.759Z,29.30
2019-04-04T05:24:05.288Z,32.27
2019-04-04T05:26:35.191Z,27.80
2019-04-04T05:29:06.690Z,29.17
2019-04-04T05:31:36.083Z,29.63
2019-04-04T05:34:05.975Z,29.70
2019-04-04T05:36:37.071Z,29.20
2019-04-04T05:39:08.329Z,29.23
2019-04-04T05:41:40.936Z,29.13
2019-04-04T05:44:10.437Z,31.90
2019-04-04T05:46:39.893Z,26.73
2019-04-04T05:49:09.331Z,28.03
2019-04-04T05:51:38.860Z,30.70
2019-04-04T05:54:08.436Z,29.30
2019-04-04T05:56:38.202Z,28.73
2019-04-04T05:59:07.643Z,31.60
2019-04-04T06:01:37.414Z,35.00
2019-04-04T06:04:06.943Z,29.33
2019-04-04T06:06:36.404Z,30.10
2019-04-04T06:09:08.156Z,30.30
2019-04-04T06:11:37.570Z,28.27
2019-04-04T06:14:07.021Z,27.83
2019-04-04T06:16:36.493Z,28.93
2019-04-04T06:19:06.031Z,27.83
2019-04-04T06:21:35.495Z,27.03
2019-04-04T06:24:05.031Z,29.10
2019-04-04T06:26:36.111Z,27.47
2019-04-04T06:29:05.860Z,28.67
2019-04-04T06:31:37.065Z,27.00
2019-04-04T06:34:09.903Z,26.27
2019-04-04T06:36:37.710Z,23.60
2019-04-04T06:39:08.657Z,26.03
2019-04-04T06:41:38.277Z,26.10
2019-04-04T06:44:07.771Z,24.80
2019-04-04T06:46:37.221Z,27.57
2019-04-04T06:49:06.615Z,25.73
2019-04-04T06:51:36.052Z,26.03
2019-04-04T06:54:05.537Z,30.37
2019-04-04T06:56:35.033Z,27.57
2019-04-04T06:59:04.470Z,25.90
2019-04-04T07:01:33.879Z,31.43
2019-04-04T07:04:03.603Z,26.87
2019-04-04T07:06:33.002Z,28.03
2019-04-04T07:09:02.655Z,27.27
2019-04-04T07:11:34.803Z,29.60
2019-04-04T07:14:03.153Z,29.13
2019-04-04T07:16:36.213Z,28.87
2019-04-04T07:19:03.891Z,26.13
2019-04-04T07:21:33.337Z,28.73
2019-04-04T07:24:02.719Z,24.93
2019-04-04T07:26:32.016Z,26.93
2019-04-04T07:29:01.386Z,23.43
2019-04-04T07:31:33.275Z,24.80
2019-04-04T07:34:01.861Z,24.40
2019-04-04T07:36:31.269Z,25.00
2019-04-04T07:39:01.048Z,24.87
2019-04-04T07:41:30.633Z,22.90
2019-04-04T07:44:00.164Z,29.23
2019-04-04T07:46:29.602Z,24.27
2019-04-04T07:48:59.386Z,25.77
2019-04-04T07:51:30.279Z,22.10
2019-04-04T07:54:00.310Z,21.00
2019-04-04T07:56:30.157Z,25.30
2019-04-04T07:58:59.752Z,21.57
2019-04-04T08:01:29.290Z,25.23
2019-04-04T08:03:58.753Z,19.60
2019-04-04T08:06:28.146Z,19.80
2019-04-04T08:08:57.591Z,19.93
2019-04-04T08:11:27.393Z,21.80
2019-04-04T08:13:57.119Z,21.93
2019-04-04T08:16:26.880Z,20.80
2019-04-04T08:18:56.617Z,19.37
2019-04-04T08:21:27.771Z,21.13
2019-04-04T08:23:57.575Z,19.40
2019-04-04T08:26:27.275Z,21.17
2019-04-04T08:28:56.688Z,20.47
2019-04-04T08:31:26.320Z,35.77
2019-04-04T08:33:55.906Z,26.57
2019-04-04T08:36:25.337Z,26.10
2019-04-04T08:38:58.084Z,21.90
2019-04-04T08:41:27.754Z,21.10
2019-04-04T08:43:57.146Z,26.23
2019-04-04T08:46:26.775Z,25.03
2019-04-04T08:48:56.610Z,19.70
2019-04-04T08:51:26.579Z,23.13
2019-04-04T08:53:56.175Z,19.07
2019-04-04T08:56:25.559Z,19.73
2019-04-04T08:58:55.304Z,20.33
2019-04-04T09:01:24.808Z,21.73
2019-04-04T09:03:55.585Z,22.97
2019-04-04T09:06:28.105Z,22.93
2019-04-04T09:09:00.373Z,21.03
2019-04-04T09:11:31.357Z,22.70
2019-04-04T09:14:00.784Z,24.57
2019-04-04T09:16:30.307Z,18.27
2019-04-04T09:18:59.765Z,26.00
2019-04-04T09:21:35.225Z,23.03
2019-04-04T09:24:07.084Z,21.03
2019-04-04T09:26:36.431Z,24.13
2019-04-04T09:29:06.116Z,22.17
2019-04-04T09:31:35.583Z,26.13
2019-04-04T09:34:05.183Z,21.17
2019-04-04T09:36:34.598Z,23.00
2019-04-04T09:39:06.437Z,20.67
2019-04-04T09:41:36.179Z,23.20
2019-04-04T09:44:08.353Z,21.70
2019-04-04T09:46:39.627Z,21.40
2019-04-04T09:49:09.197Z,23.07
2019-04-04T09:51:38.698Z,21.73
2019-04-04T09:54:08.133Z,20.27
2019-04-04T09:56:37.868Z,27.73
2019-04-04T09:59:07.147Z,18.27
2019-04-04T10:01:36.760Z,16.90
2019-04-04T10:04:06.198Z,21.67
2019-04-04T10:06:35.840Z,17.60
2019-04-04T10:09:15.545Z,21.37
2019-04-04T10:11:38.762Z,20.33
2019-04-04T10:14:08.426Z,23.90
2019-04-04T10:16:37.887Z,19.50
2019-04-04T10:19:07.442Z,19.47
2019-04-04T10:21:36.895Z,19.40
2019-04-04T10:24:06.431Z,23.77
2019-04-04T10:26:35.900Z,21.43
2019-04-04T10:29:05.415Z,18.73
2019-04-04T10:31:35.106Z,17.80
2019-04-04T10:34:04.697Z,17.60
2019-04-04T10:36:34.211Z,17.60
2019-04-04T10:39:05.280Z,16.70
2019-04-04T10:41:34.965Z,19.53
2019-04-04T10:44:04.371Z,15.10
2019-04-04T10:46:33.837Z,16.13
2019-04-04T10:49:03.328Z,15.00
2019-04-04T10:51:32.734Z,16.60
2019-04-04T10:54:02.738Z,14.97
2019-04-04T10:56:32.555Z,16.93
2019-04-04T10:59:02.347Z,19.07
2019-04-04T11:01:31.919Z,15.97
2019-04-04T11:04:01.926Z,15.33
2019-04-04T11:06:31.390Z,17.53
2019-04-04T11:09:00.856Z,15.07
2019-04-04T11:11:30.282Z,17.27
2019-04-04T11:14:01.514Z,17.53
2019-04-04T11:16:31.003Z,14.67
2019-04-04T11:19:00.574Z,16.37
2019-04-04T11:21:30.455Z,12.70
2019-04-04T11:23:59.970Z,13.10
2019-04-04T11:26:29.561Z,15.10
2019-04-04T11:28:59.012Z,12.93
2019-04-04T11:31:28.797Z,13.07
2019-04-04T11:33:58.333Z,16.87
2019-04-04T11:36:27.757Z,13.43
2019-04-04T11:38:57.193Z,14.83
2019-04-04T11:41:26.702Z,14.00
2019-04-04T11:43:56.264Z,14.00
2019-04-04T11:46:28.720Z,14.83
2019-04-04T11:48:58.251Z,14.07
2019-04-04T11:51:27.884Z,11.57
2019-04-04T11:53:57.461Z,15.73
2019-04-04T11:56:27.004Z,11.00
2019-04-04T11:58:57.458Z,11.53
2019-04-04T12:01:27.829Z,10.53
2019-04-04T12:03:57.206Z,10.17
2019-04-04T12:06:26.720Z,11.67
2019-04-04T12:08:56.164Z,10.47
2019-04-04T12:11:25.656Z,11.07
2019-04-04T12:13:57.896Z,10.63
2019-04-04T12:16:27.430Z,14.70
2019-04-04T12:18:57.002Z,13.03
2019-04-04T12:21:26.516Z,14.40
2019-04-04T12:23:55.986Z,18.73
2019-04-04T12:26:25.528Z,11.93
2019-04-04T12:28:56.283Z,12.23
2019-04-04T12:31:25.835Z,17.30
2019-04-04T12:33:55.378Z,11.23
2019-04-04T12:36:27.975Z,10.63
2019-04-04T12:38:58.002Z,12.87
2019-04-04T12:41:28.363Z,13.67
2019-04-04T12:43:58.054Z,11.57
2019-04-04T12:46:27.562Z,13.77
2019-04-04T12:48:57.037Z,10.20
2019-04-04T12:51:26.495Z,12.20
2019-04-04T12:53:57.515Z,11.13
2019-04-04T12:56:27.116Z,11.37
2019-04-04T12:58:56.698Z,13.20
2019-04-04T13:01:26.185Z,13.87
2019-04-04T13:03:55.795Z,12.77
2019-04-04T13:06:25.275Z,15.50
2019-04-04T13:08:55.130Z,15.10
2019-04-04T13:11:27.836Z,13.57
2019-04-04T13:13:57.294Z,12.87
2019-04-04T13:16:26.775Z,13.93
2019-04-04T13:18:56.271Z,12.23
2019-04-04T13:21:28.165Z,13.33
2019-04-04T13:23:57.605Z,11.67
2019-04-04T13:26:27.456Z,12.53
2019-04-04T13:28:57.171Z,13.60
2019-04-04T13:31:26.872Z,13.73
2019-04-04T13:33:56.603Z,14.37
2019-04-04T13:36:25.955Z,13.23
2019-04-04T13:38:55.485Z,12.83
2019-04-04T13:41:25.030Z,11.63
2019-04-04T13:43:54.875Z,10.90
2019-04-04T13:46:25.909Z,14.40
2019-04-04T13:48:55.422Z,12.53
2019-04-04T13:51:25.649Z,14.97
2019-04-04T13:53:55.775Z,15.87
2019-04-04T13:56:25.190Z,11.47
2019-04-04T13:58:54.774Z,12.93
2019-04-04T14:01:25.485Z,18.17
2019-04-04T14:03:55.115Z,11.93
2019-04-04T14:06:24.551Z,11.70
2019-04-04T14:08:54.179Z,16.77
2019-04-04T14:11:23.694Z,16.27
2019-04-04T14:13:53.932Z,13.70
2019-04-04T14:16:23.439Z,12.27
2019-04-04T14:18:52.764Z,16.87
2019-04-04T14:21:22.166Z,15.63
2019-04-04T14:23:52.925Z,12.33
2019-04-04T14:26:22.944Z,11.57
2019-04-04T14:28:52.422Z,15.40
2019-04-04T14:31:22.216Z,14.83
2019-04-04T14:33:51.802Z,14.67
2019-04-04T14:36:21.347Z,14.97
2019-04-04T14:38:50.779Z,14.33
2019-04-04T14:41:20.321Z,13.40
2019-04-04T14:43:51.919Z,12.57
2019-04-04T14:46:21.387Z,13.40
2019-04-04T14:48:50.941Z,14.07
2019-04-04T14:51:20.381Z,11.80
2019-04-04T14:53:49.995Z,12.10
2019-04-04T14:56:19.486Z,17.13
2019-04-04T14:58:49.062Z,12.93
2019-04-04T15:01:18.910Z,12.17
2019-04-04T15:03:50.206Z,11.90
2019-04-04T15:06:19.622Z,13.50
2019-04-04T15:08:50.156Z,12.23
2019-04-04T15:11:24.219Z,13.53
2019-04-04T15:13:52.803Z,14.23
2019-04-04T15:16:22.350Z,10.83
2019-04-04T15:18:53.418Z,12.43
2019-04-04T15:21:22.932Z,11.87
2019-04-04T15:23:52.439Z,12.13
2019-04-04T15:26:21.965Z,13.07
2019-04-04T15:29:03.914Z,12.20
2019-04-04T15:31:34.461Z,14.58
2019-04-04T15:34:54.892Z,16.00
2019-04-04T15:37:24.315Z,12.03
2019-04-04T15:53:39.044Z,15.67
2019-04-04T15:56:08.697Z,13.03
2019-04-04T15:58:38.210Z,15.90
2019-04-04T16:01:07.860Z,17.57
2019-04-04T16:03:37.381Z,13.27
2019-04-04T16:06:06.983Z,16.20
2019-04-04T16:08:36.709Z,20.80
2019-04-04T16:11:06.509Z,17.83
2019-04-04T16:13:36.739Z,19.73
2019-04-04T16:16:06.350Z,12.93
2019-04-04T16:18:38.139Z,16.67
2019-04-04T16:21:07.697Z,13.10
2019-04-04T16:23:37.254Z,12.17
2019-04-04T16:26:06.858Z,15.13
2019-04-04T16:28:36.286Z,15.97
2019-04-04T16:31:05.843Z,12.83
2019-04-04T16:33:35.323Z,14.03
2019-04-04T16:36:05.597Z,17.33
2019-04-04T16:38:35.177Z,15.17
2019-04-04T16:41:05.085Z,13.77
2019-04-04T16:43:34.535Z,14.97
2019-04-04T16:46:05.088Z,13.73
2019-04-04T16:48:34.697Z,12.73
2019-04-04T16:51:04.372Z,14.77
2019-04-04T16:53:34.208Z,16.07
2019-04-04T16:56:04.340Z,14.73
2019-04-04T16:58:33.785Z,15.87
2019-04-04T17:01:04.436Z,15.17
2019-04-04T17:03:34.434Z,13.80
2019-04-04T17:06:04.529Z,14.47
2019-04-04T17:08:33.980Z,15.13
2019-04-04T17:11:04.520Z,14.93
2019-04-04T17:13:34.362Z,14.83
2019-04-04T17:16:03.915Z,15.23
2019-04-04T17:18:33.546Z,13.37
2019-04-04T17:21:03.018Z,14.90
2019-04-04T17:23:32.548Z,14.03
2019-04-04T17:26:03.150Z,15.50
2019-04-04T17:28:33.012Z,15.57
2019-04-04T17:31:02.824Z,17.53
2019-04-04T17:33:33.502Z,17.37
2019-04-04T17:36:03.594Z,15.90
2019-04-04T17:38:33.446Z,14.37
2019-04-04T17:41:03.198Z,16.20
2019-04-04T17:43:32.931Z,15.80
2019-04-04T17:46:04.451Z,15.07
2019-04-04T17:48:34.619Z,15.53
2019-04-04T17:51:04.566Z,14.43
2019-04-04T17:53:34.444Z,17.07
2019-04-04T17:56:04.063Z,15.03
2019-04-04T17:58:33.682Z,19.30
2019-04-04T18:01:04.623Z,16.20
2019-04-04T18:03:37.672Z,17.30
2019-04-04T18:06:07.195Z,14.90
2019-04-04T18:08:36.740Z,18.43
2019-04-04T18:11:06.383Z,17.27
2019-04-04T18:13:36.594Z,17.23
2019-04-04T18:16:09.114Z,17.23
2019-04-04T18:18:38.698Z,17.90
2019-04-04T18:21:08.288Z,17.87
2019-04-04T18:23:37.921Z,16.17
2019-04-04T18:26:07.390Z,20.63
2019-04-04T18:28:39.358Z,19.43
2019-04-04T18:31:08.208Z,18.47
2019-04-04T18:33:37.949Z,20.83
2019-04-04T18:36:07.683Z,21.57
2019-04-04T18:38:37.691Z,22.43
2019-04-04T18:41:07.274Z,21.10
2019-04-04T18:43:37.327Z,19.40
2019-04-04T18:46:07.178Z,22.33
2019-04-04T18:48:36.658Z,17.60
2019-04-04T18:51:06.166Z,17.87
2019-04-04T18:53:36.015Z,22.03
2019-04-04T18:56:05.601Z,20.00
2019-04-04T18:58:35.096Z,19.13
2019-04-04T19:01:04.977Z,20.67
2019-04-04T19:03:34.572Z,19.47
2019-04-04T19:06:04.063Z,18.10
2019-04-04T19:08:33.501Z,17.97
2019-04-04T19:11:03.075Z,20.07
2019-04-04T19:13:43.767Z,17.13
2019-04-04T19:16:03.772Z,17.83
2019-04-04T19:18:33.529Z,18.17
2019-04-04T19:21:03.240Z,20.57
2019-04-04T19:23:33.274Z,21.57
2019-04-04T19:26:03.843Z,19.50
2019-04-04T19:28:35.530Z,18.47
2019-04-04T19:31:05.875Z,19.37
2019-04-04T19:33:35.466Z,18.43
2019-04-04T19:36:05.488Z,19.97
2019-04-04T19:38:36.056Z,19.00
2019-04-04T19:41:06.405Z,22.13
2019-04-04T19:43:36.210Z,20.00
2019-04-04T19:46:08.945Z,26.93
2019-04-04T19:48:38.355Z,30.97
2019-04-04T19:51:07.859Z,32.30
2019-04-04T19:53:37.380Z,28.90
2019-04-04T19:56:06.862Z,27.97
2019-04-04T19:58:36.469Z,27.70
2019-04-04T20:01:06.351Z,28.03
2019-04-04T20:03:35.959Z,27.20
2019-04-04T20:06:05.418Z,32.97
2019-04-04T20:08:35.321Z,41.53
2019-04-04T20:11:04.774Z,37.13
2019-04-04T20:13:34.205Z,41.50
2019-04-04T20:16:05.672Z,37.97
2019-04-04T20:18:35.333Z,37.57
2019-04-04T20:21:04.896Z,40.50
2019-04-04T20:23:34.826Z,40.37
2019-04-04T20:26:04.563Z,38.83
2019-04-04T20:28:36.694Z,40.00
2019-04-04T20:31:08.500Z,43.77
2019-04-04T20:33:38.059Z,46.27
2019-04-04T20:36:07.573Z,45.80
2019-04-04T20:38:37.182Z,41.63
2019-04-04T20:41:07.017Z,36.53
2019-04-04T20:43:43.285Z,36.40
2019-04-04T20:46:07.659Z,33.73
2019-04-04T20:48:37.581Z,33.07
2019-04-04T20:51:07.034Z,30.40
2019-04-04T20:53:36.737Z,31.17
2019-04-04T20:56:06.111Z,33.63
2019-04-04T20:58:37.585Z,32.97
2019-04-04T21:01:07.134Z,34.50
2019-04-04T21:03:36.582Z,34.53
2019-04-04T21:06:06.090Z,33.80
2019-04-04T21:08:36.937Z,33.37
2019-04-04T21:11:06.614Z,38.23
2019-04-04T21:13:36.215Z,38.33
2019-04-04T21:16:05.863Z,36.43
2019-04-04T21:18:35.192Z,36.60
2019-04-04T21:21:04.790Z,35.47
2019-04-04T21:23:34.239Z,31.73
2019-04-04T21:26:04.032Z,34.47
2019-04-04T21:28:33.700Z,33.33
2019-04-04T21:31:03.295Z,32.37
2019-04-04T21:33:33.002Z,32.57
2019-04-04T21:36:02.449Z,32.60
2019-04-04T21:38:31.988Z,31.30
2019-04-04T21:41:01.523Z,30.57
2019-04-04T21:43:31.004Z,34.67
2019-04-04T21:46:00.685Z,30.80
2019-04-04T21:48:30.112Z,32.83
2019-04-04T21:50:59.699Z,30.67
2019-04-04T21:53:29.223Z,37.53
2019-04-04T21:55:58.863Z,35.23
2019-04-04T21:58:28.470Z,38.00
2019-04-04T22:00:58.486Z,36.53
2019-04-04T22:03:28.019Z,35.67
2019-04-04T22:05:57.602Z,34.77
2019-04-04T22:08:27.217Z,30.70
2019-04-04T22:10:56.675Z,31.97
2019-04-04T22:13:28.854Z,27.73
2019-04-04T22:15:58.385Z,32.07
2019-04-04T22:18:27.809Z,30.97
2019-04-04T22:20:57.556Z,28.97
2019-04-04T22:23:26.981Z,27.43
2019-04-04T22:25:56.409Z,31.10
2019-04-04T22:28:25.759Z,30.13
2019-04-04T22:30:55.316Z,31.47
2019-04-04T22:33:24.701Z,28.83
2019-04-04T22:35:54.185Z,32.17
2019-04-04T22:38:23.643Z,33.07
2019-04-04T22:40:53.209Z,28.90
2019-04-04T22:43:24.987Z,32.47
2019-04-04T22:45:54.552Z,31.63
2019-04-04T22:48:23.962Z,31.60
2019-04-04T22:50:53.465Z,28.57
2019-04-04T22:53:23.123Z,28.90
2019-04-04T22:55:52.593Z,27.07
2019-04-04T22:58:28.100Z,27.10
2019-04-04T23:00:53.114Z,29.60
2019-04-04T23:03:23.422Z,26.73
2019-04-04T23:05:52.855Z,30.87
2019-04-04T23:08:22.246Z,29.40
2019-04-04T23:10:51.795Z,29.23
2019-04-04T23:13:21.228Z,25.80
2019-04-04T23:15:50.680Z,30.87
2019-04-04T23:18:20.052Z,30.97
2019-04-04T23:20:49.492Z,27.00
2019-04-04T23:23:18.915Z,28.43
2019-04-04T23:25:48.469Z,31.23
2019-04-04T23:28:17.945Z,27.90
2019-04-04T23:30:47.558Z,27.27
2019-04-04T23:33:17.006Z,29.77
2019-04-04T23:35:47.167Z,28.97
2019-04-04T23:38:16.815Z,27.13
2019-04-04T23:40:46.223Z,28.13
2019-04-04T23:43:15.621Z,25.50
2019-04-04T23:45:45.548Z,28.63
2019-04-04T23:48:15.244Z,25.93
2019-04-04T23:50:44.661Z,27.13
2019-04-04T23:53:14.099Z,29.67
2019-04-04T23:55:43.635Z,24.50
2019-04-04T23:58:13.275Z,25.20
